Time;durP1;ratioP1;P1;durP2;ratioP2;P2;SDS_P1;SDS_P2;PMS_P1;PMS_P2;Temp;Humidity;BMP_temperature;BMP_pressure;BME280_temperature;BME280_humidity;BME280_pressure;Samples;Min_cycle;Max_cycle;Signal;HPM_P1;HPM_P2
2021/01/12 00:02:16;;;;;;;24.92;17.90;;;;;;;3.33;95.54;99841.75;5055298;28;20465;-79
2021/01/12 00:04:44;;;;;;;24.77;17.77;;;;;;;3.36;95.53;99841.66;5054467;28;20080;-78
2021/01/12 00:07:11;;;;;;;23.77;17.75;;;;;;;3.34;95.80;99821.50;5055609;28;20114;-78
2021/01/12 00:09:37;;;;;;;25.50;17.95;;;;;;;3.26;95.36;99821.78;5055183;28;20053;-79
2021/01/12 00:12:04;;;;;;;23.05;17.27;;;;;;;3.21;95.17;99808.75;5055146;28;20068;-78
2021/01/12 00:14:33;;;;;;;24.88;17.52;;;;;;;3.36;95.58;99825.81;5055245;28;20049;-78
2021/01/12 00:17:02;;;;;;;23.92;17.27;;;;;;;3.32;95.43;99829.47;5054297;28;20136;-79
2021/01/12 00:19:29;;;;;;;22.30;15.73;;;;;;;3.37;95.16;99831.94;5055464;28;20045;-80
2021/01/12 00:21:56;;;;;;;22.35;17.00;;;;;;;3.30;95.40;99823.41;5055771;28;20057;-80
2021/01/12 00:24:23;;;;;;;23.77;18.60;;;;;;;3.32;95.98;99824.19;5056029;28;20134;-80
2021/01/12 00:26:49;;;;;;;25.58;17.48;;;;;;;3.30;95.79;99812.84;5055809;28;20051;-80
2021/01/12 00:29:16;;;;;;;24.15;16.98;;;;;;;3.25;95.88;99797.19;5054842;28;20049;-79
2021/01/12 00:31:43;;;;;;;21.98;15.85;;;;;;;3.33;95.97;99799.53;5055629;28;20053;-80
2021/01/12 00:34:10;;;;;;;22.13;15.45;;;;;;;3.35;96.29;99807.41;5055336;28;20053;-79
2021/01/12 00:36:49;;;;;;;21.38;12.10;;;;;;;3.32;96.31;99789.91;5054260;28;20060;-79
2021/01/12 00:39:17;;;;;;;23.13;16.33;;;;;;;3.33;95.88;99788.13;5055459;28;20056;-80
2021/01/12 00:41:54;;;;;;;21.45;15.45;;;;;;;3.31;96.22;99787.34;5055115;28;20065;-78
2021/01/12 00:44:22;;;;;;;21.45;15.70;;;;;;;3.32;96.89;99787.25;5054784;28;20118;-79
2021/01/12 00:46:49;;;;;;;23.10;16.38;;;;;;;3.35;96.34;99781.91;5054561;28;20053;-78
2021/01/12 00:49:17;;;;;;;23.63;17.38;;;;;;;3.38;96.90;99765.94;5053717;28;20393;-78
2021/01/12 00:51:43;;;;;;;31.15;17.42;;;;;;;3.40;96.49;99765.88;5055037;28;20056;-79
2021/01/12 00:54:15;;;;;;;21.63;15.35;;;;;;;3.38;96.55;99757.19;5054919;28;20052;-78
2021/01/12 00:56:46;;;;;;;24.55;16.15;;;;;;;3.39;96.76;99749.19;5055085;28;20140;-80
2021/01/12 00:59:12;;;;;;;20.02;15.25;;;;;;;3.39;96.59;99759.75;5055364;28;20419;-79
2021/01/12 01:01:39;;;;;;;21.83;14.75;;;;;;;3.42;96.98;99748.22;5058550;28;20060;-79
2021/01/12 01:04:09;;;;;;;20.98;15.43;;;;;;;3.41;96.62;99746.50;5058833;28;20358;-78
2021/01/12 01:06:35;;;;;;;19.77;14.27;;;;;;;3.39;97.02;99746.53;5058784;28;20071;-78
2021/01/12 01:09:02;;;;;;;20.33;15.27;;;;;;;3.31;97.02;99726.69;5057785;28;20053;-79
2021/01/12 01:11:28;;;;;;;22.92;14.52;;;;;;;3.42;96.85;99732.38;5058730;28;20072;-78
2021/01/12 01:13:57;;;;;;;19.63;14.00;;;;;;;3.45;96.34;99720.84;5058604;28;20405;-78
2021/01/12 01:16:31;;;;;;;19.17;13.38;;;;;;;3.38;96.86;99707.91;5057145;28;20071;-78
2021/01/12 01:18:57;;;;;;;16.83;13.10;;;;;;;3.40;96.39;99721.88;5058113;28;20055;-78
2021/01/12 01:21:24;;;;;;;18.88;13.93;;;;;;;3.40;96.86;99711.31;5058054;28;20347;-78
2021/01/12 01:23:50;;;;;;;16.27;12.77;;;;;;;3.37;97.01;99685.06;5058187;28;20144;-78
2021/01/12 01:26:22;;;;;;;14.75;11.68;;;;;;;3.35;96.83;99683.41;5058119;28;20114;-78
2021/01/12 01:28:49;;;;;;;12.88;11.05;;;;;;;3.41;96.93;99688.47;5058003;28;20091;-78
2021/01/12 01:31:15;;;;;;;12.35;9.82;;;;;;;3.43;96.55;99691.88;5056856;28;20061;-78
2021/01/12 01:33:41;;;;;;;13.70;11.05;;;;;;;3.43;97.13;99693.69;5057142;28;20128;-78
2021/01/12 01:36:10;;;;;;;12.80;10.48;;;;;;;3.47;96.27;99685.59;5056691;28;20057;-79
2021/01/12 01:38:38;;;;;;;13.63;11.25;;;;;;;3.43;96.78;99680.50;5057862;28;20434;-78
2021/01/12 01:41:09;;;;;;;12.85;9.88;;;;;;;3.40;96.97;99670.91;5057859;28;20045;-79
2021/01/12 01:43:36;;;;;;;12.65;9.23;;;;;;;3.44;96.54;99658.47;5057619;28;20053;-78
2021/01/12 01:46:07;;;;;;;14.07;10.57;;;;;;;3.36;97.22;99659.63;5056702;28;20045;-78
2021/01/12 01:48:34;;;;;;;;;;;;;;;3.45;97.29;99665.44;5058330;28;20433;-78
2021/01/12 01:51:02;;;;;;;10.98;9.13;;;;;;;3.25;97.17;99622.25;5057528;28;19920;-78
2021/01/12 01:53:33;;;;;;;12.52;9.88;;;;;;;3.38;96.81;99647.22;5056686;28;20063;-78
2021/01/12 01:56:06;;;;;;;13.48;10.45;;;;;;;3.31;97.33;99653.66;5057674;28;20065;-78
2021/01/12 01:58:40;;;;;;;11.40;9.77;;;;;;;3.39;97.00;99646.28;5056804;28;20106;-78
2021/01/12 02:01:08;;;;;;;11.98;9.73;;;;;;;3.43;97.49;99630.38;5057699;28;20373;-78
2021/01/12 02:04:29;;;;;;;11.52;9.05;;;;;;;3.43;97.21;99656.75;5057639;28;20114;-77
2021/01/12 02:07:02;;;;;;;10.35;9.23;;;;;;;3.40;97.21;99632.19;5015700;28;20353;-77
2021/01/12 02:09:40;;;;;;;11.25;9.40;;;;;;;3.47;97.63;99637.22;5055238;28;20049;-77
2021/01/12 02:12:16;;;;;;;12.95;8.73;;;;;;;3.49;97.28;99630.97;5056737;28;20052;-78
2021/01/12 02:14:44;;;;;;;11.20;8.80;;;;;;;3.55;96.97;99629.00;5057225;28;20427;-79
2021/01/12 02:17:10;;;;;;;12.27;9.68;;;;;;;3.57;97.32;99616.59;5057380;28;20048;-78
2021/01/12 02:19:38;;;;;;;10.65;8.40;;;;;;;3.63;97.27;99627.78;5057143;28;20056;-78
2021/01/12 02:22:06;;;;;;;10.45;8.20;;;;;;;3.63;96.38;99603.16;5057043;28;20059;-78
2021/01/12 02:24:36;;;;;;;10.52;8.18;;;;;;;3.67;97.19;99616.16;5057179;28;20053;-79
2021/01/12 02:27:05;;;;;;;8.98;7.55;;;;;;;3.74;96.84;99597.44;5057011;28;20065;-78
2021/01/12 02:29:33;;;;;;;9.67;7.87;;;;;;;3.70;97.09;99580.84;5056918;28;20048;-79
2021/01/12 02:31:59;;;;;;;8.05;6.60;;;;;;;3.69;96.89;99567.75;5056226;28;20111;-79
2021/01/12 02:34:28;;;;;;;8.50;7.10;;;;;;;3.74;96.81;99578.94;5056786;28;20084;-77
2021/01/12 02:36:56;;;;;;;8.70;7.15;;;;;;;3.75;96.43;99563.06;5055561;28;20063;-78
2021/01/12 02:39:22;;;;;;;8.77;7.28;;;;;;;3.85;97.11;99575.84;5056833;28;20103;-78
2021/01/12 02:41:48;;;;;;;7.55;6.18;;;;;;;3.83;97.17;99572.44;5056986;28;20049;-78
2021/01/12 02:44:20;;;;;;;8.82;6.10;;;;;;;3.84;96.97;99551.25;5056845;28;20086;-78
2021/01/12 02:46:46;;;;;;;8.60;6.68;;;;;;;3.77;96.81;99550.63;5056576;28;20485;-78
2021/01/12 02:49:12;;;;;;;6.50;5.45;;;;;;;3.86;96.74;99570.50;5056601;28;20048;-78
2021/01/12 02:51:38;;;;;;;6.50;5.65;;;;;;;3.87;96.73;99550.25;5056673;28;20064;-78
2021/01/12 02:54:05;;;;;;;7.18;5.13;;;;;;;3.97;96.38;99561.28;5056746;28;20053;-78
2021/01/12 02:56:31;;;;;;;5.93;5.07;;;;;;;3.92;96.87;99541.22;5056344;28;20053;-78
2021/01/12 02:58:57;;;;;;;6.43;5.47;;;;;;;4.04;97.01;99544.25;5056436;28;20049;-77
2021/01/12 03:01:23;;;;;;;8.68;5.28;;;;;;;3.98;96.53;99533.97;5057496;28;20049;-78
2021/01/12 03:03:49;;;;;;;6.70;5.45;;;;;;;4.02;96.86;99544.31;5056229;28;20488;-79
2021/01/12 03:06:15;;;;;;;7.47;5.30;;;;;;;4.05;96.54;99527.47;5056307;28;20370;-78
2021/01/12 03:08:41;;;;;;;5.38;4.47;;;;;;;4.00;96.44;99517.13;5056339;28;20056;-78
2021/01/12 03:11:08;;;;;;;6.88;5.72;;;;;;;4.04;97.15;99520.47;5056271;28;20053;-78
2021/01/12 03:13:34;;;;;;;5.95;5.35;;;;;;;4.02;96.51;99506.47;5056354;28;20068;-77
2021/01/12 03:16:00;;;;;;;7.55;4.78;;;;;;;4.07;97.09;99508.00;5055382;28;20056;-77
2021/01/12 03:18:26;;;;;;;6.68;4.75;;;;;;;4.21;96.62;99523.22;5056136;28;20056;-78
2021/01/12 03:20:52;;;;;;;5.68;4.18;;;;;;;4.13;96.32;99496.28;5055985;28;20053;-78
2021/01/12 03:23:19;;;;;;;6.55;5.07;;;;;;;4.17;96.57;99508.44;5055890;28;20065;-78
2021/01/12 03:25:45;;;;;;;6.65;4.70;;;;;;;4.23;96.59;99514.38;5055757;28;20359;-77
2021/01/12 03:28:11;;;;;;;5.38;4.72;;;;;;;4.21;96.34;99515.28;5056192;28;20045;-78
2021/01/12 03:30:37;;;;;;;6.20;5.60;;;;;;;4.13;96.45;99506.84;5055740;28;20195;-79
2021/01/12 03:33:04;;;;;;;6.10;5.43;;;;;;;4.16;97.09;99498.81;5055918;28;20048;-77
2021/01/12 03:35:30;;;;;;;6.72;5.35;;;;;;;4.14;97.70;99492.72;5056038;28;20124;-77
2021/01/12 03:37:56;;;;;;;8.10;5.40;;;;;;;4.06;97.84;99487.81;5055407;28;20057;-77
2021/01/12 03:40:23;;;;;;;6.13;5.10;;;;;;;4.12;97.74;99486.66;5055955;28;20064;-78
2021/01/12 03:42:49;;;;;;;7.45;5.45;;;;;;;4.11;97.72;99479.66;5055958;28;20049;-78
2021/01/12 03:45:16;;;;;;;6.10;5.28;;;;;;;4.14;97.52;99479.50;5054872;28;20061;-78
2021/01/12 03:47:42;;;;;;;6.07;4.90;;;;;;;4.18;97.46;99470.53;5055291;28;20052;-77
2021/01/12 03:50:08;;;;;;;5.50;4.90;;;;;;;4.19;97.75;99456.41;5055800;28;20056;-79
2021/01/12 03:52:35;;;;;;;6.57;4.97;;;;;;;4.20;97.69;99467.84;5055275;28;20048;-79
2021/01/12 03:55:02;;;;;;;5.55;4.53;;;;;;;4.23;97.31;99451.81;5055703;28;20060;-78
2021/01/12 03:57:29;;;;;;;5.97;4.82;;;;;;;4.24;98.06;99463.25;5054501;28;20129;-78
2021/01/12 03:59:55;;;;;;;5.32;4.13;;;;;;;4.29;97.36;99451.56;5055217;28;20152;-78
2021/01/12 04:02:21;;;;;;;4.32;3.92;;;;;;;4.27;96.90;99427.00;5055201;28;20110;-77
2021/01/12 04:04:53;;;;;;;7.30;3.53;;;;;;;4.34;97.64;99440.75;5055263;28;20118;-77
2021/01/12 04:07:19;;;;;;;5.65;4.10;;;;;;;4.11;97.77;99399.56;5054003;28;20056;-78
2021/01/12 04:09:45;;;;;;;5.15;4.13;;;;;;;4.32;98.05;99432.91;5055152;28;20045;-78
2021/01/12 04:12:12;;;;;;;4.35;3.58;;;;;;;4.38;97.74;99423.84;5054115;28;20430;-78
2021/01/12 04:14:38;;;;;;;5.75;4.22;;;;;;;4.31;97.88;99401.28;5055145;28;20060;-78
2021/01/12 04:17:04;;;;;;;4.32;3.92;;;;;;;4.37;97.62;99421.28;5053899;28;20144;-78
2021/01/12 04:19:31;;;;;;;6.78;3.85;;;;;;;4.40;97.87;99421.97;5055157;28;20045;-78
2021/01/12 04:21:57;;;;;;;4.00;3.35;;;;;;;4.40;97.61;99416.69;5053936;28;20049;-77
2021/01/12 04:24:24;;;;;;;5.10;4.03;;;;;;;4.41;98.30;99421.03;5054069;28;20065;-77
2021/01/12 04:26:50;;;;;;;6.40;3.88;;;;;;;4.46;97.73;99428.75;5055336;28;20045;-78
2021/01/12 04:29:16;;;;;;;6.28;3.40;;;;;;;4.47;98.03;99423.41;5054869;28;20045;-78
2021/01/12 04:31:42;;;;;;;5.68;3.70;;;;;;;4.47;97.83;99385.56;5055064;28;20060;-78
2021/01/12 04:34:08;;;;;;;3.67;3.35;;;;;;;4.51;97.95;99391.56;5056109;28;20055;-78
2021/01/12 04:36:34;;;;;;;5.00;3.50;;;;;;;4.51;97.80;99397.69;5061808;28;20065;-76
2021/01/12 04:39:01;;;;;;;3.67;3.20;;;;;;;4.54;97.99;99392.25;5060390;28;20045;-78
2021/01/12 04:41:27;;;;;;;5.05;2.88;;;;;;;4.57;98.06;99397.38;5060282;28;20063;-77
2021/01/12 04:43:53;;;;;;;3.00;2.30;;;;;;;4.49;97.66;99368.69;5062022;28;20319;-77
2021/01/12 04:46:19;;;;;;;4.55;3.15;;;;;;;4.72;97.33;99389.63;5061259;28;20095;-79
2021/01/12 04:48:48;;;;;;;4.50;2.50;;;;;;;4.71;98.18;99399.38;5061331;28;20308;-78
2021/01/12 04:51:15;;;;;;;2.63;2.40;;;;;;;4.73;97.51;99380.75;5060636;28;20049;-78
2021/01/12 04:53:47;;;;;;;2.55;2.25;;;;;;;4.79;97.54;99388.41;5061684;28;20053;-77
2021/01/12 04:56:15;;;;;;;2.70;2.28;;;;;;;4.73;97.20;99378.13;5061844;28;20064;-77
2021/01/12 04:58:43;;;;;;;4.90;2.72;;;;;;;4.68;97.75;99378.34;5061384;28;20118;-78
2021/01/12 05:01:23;;;;;;;2.95;2.53;;;;;;;4.75;97.90;99376.28;5060202;28;20123;-77
2021/01/12 05:03:51;;;;;;;4.45;2.80;;;;;;;4.68;98.51;99367.78;5061462;28;20081;-77
2021/01/12 05:06:26;;;;;;;2.80;2.50;;;;;;;4.73;98.00;99379.00;5061289;28;20056;-77
2021/01/12 05:08:57;;;;;;;2.70;2.28;;;;;;;4.75;98.15;99377.13;5061396;28;20049;-77
2021/01/12 05:11:25;;;;;;;3.55;2.30;;;;;;;4.66;98.05;99340.59;5061577;28;20140;-78
2021/01/12 05:14:08;;;;;;;3.00;2.70;;;;;;;4.79;97.83;99355.84;5060536;28;20064;-78
2021/01/12 05:16:51;;;;;;;2.65;2.17;;;;;;;4.81;97.92;99346.03;5060532;28;20071;-77
2021/01/12 05:19:22;;;;;;;2.28;2.08;;;;;;;4.85;97.49;99343.16;5061388;28;20052;-78
2021/01/12 05:21:49;;;;;;;3.75;2.42;;;;;;;4.66;97.83;99311.50;5061338;28;20049;-78
2021/01/12 05:24:20;;;;;;;2.45;2.22;;;;;;;4.87;97.24;99335.16;5060139;28;20065;-77
2021/01/12 05:26:48;;;;;;;3.35;2.40;;;;;;;4.85;97.80;99323.81;5061227;28;20323;-77
2021/01/12 05:29:15;;;;;;;2.50;2.30;;;;;;;4.84;98.25;99327.34;5061247;28;20052;-79
2021/01/12 05:31:46;;;;;;;2.53;2.10;;;;;;;4.78;98.40;99322.41;5061098;28;20496;-79
2021/01/12 05:34:17;;;;;;;3.63;2.25;;;;;;;4.90;97.91;99324.41;5061138;28;20056;-77
2021/01/12 05:36:52;;;;;;;2.72;2.40;;;;;;;4.90;98.04;99313.81;5060807;28;20053;-77
2021/01/12 05:39:23;;;;;;;2.22;2.00;;;;;;;4.98;97.50;99314.31;5060035;28;20041;-77
2021/01/12 05:41:52;;;;;;;4.15;1.80;;;;;;;4.97;97.34;99312.56;5061246;28;20053;-77
2021/01/12 05:44:22;;;;;;;3.30;1.88;;;;;;;5.06;97.10;99313.88;5060927;28;20442;-77
2021/01/12 05:46:52;;;;;;;2.13;1.92;;;;;;;5.05;97.56;99309.53;5057239;28;20053;-77
2021/01/12 05:49:22;;;;;;;4.30;1.88;;;;;;;4.83;97.38;99286.84;5057798;28;20053;-78
2021/01/12 05:51:52;;;;;;;2.97;1.88;;;;;;;5.01;97.29;99316.78;5058078;28;20140;-79
2021/01/12 05:54:27;;;;;;;4.05;1.80;;;;;;;5.00;97.66;99307.13;5057704;28;20603;-78
2021/01/12 05:56:57;;;;;;;2.33;1.92;;;;;;;4.98;98.01;99294.94;5057933;28;20052;-78
2021/01/12 05:59:29;;;;;;;3.70;2.60;;;;;;;4.97;98.16;99301.16;5062152;28;20128;-78
2021/01/12 06:01:56;;;;;;;3.33;2.30;;;;;;;4.93;98.16;99283.72;5063014;28;20056;-79
2021/01/12 06:04:24;;;;;;;5.07;1.90;;;;;;;5.03;97.81;99306.97;5063065;28;20053;-78
2021/01/12 06:06:53;;;;;;;3.50;2.10;;;;;;;4.89;97.99;99280.38;5058078;28;20362;-78
2021/01/12 06:09:21;;;;;;;2.28;1.92;;;;;;;5.04;98.16;99297.25;5057770;28;20049;-78
2021/01/12 06:11:49;;;;;;;4.05;2.03;;;;;;;5.03;97.91;99304.31;5058506;28;20055;-78
2021/01/12 06:14:17;;;;;;;4.35;1.90;;;;;;;4.93;98.20;99287.25;5061386;28;20045;-80
2021/01/12 06:16:44;;;;;;;3.85;1.30;;;;;;;5.01;97.83;99282.41;5063690;28;20049;-80
2021/01/12 06:19:28;;;;;;;2.10;1.60;;;;;;;5.07;97.79;99286.50;5057818;28;20052;-83
2021/01/12 06:22:14;;;;;;;4.95;1.80;;;;;;;4.98;98.38;99266.72;5057375;28;20057;-77
2021/01/12 06:24:55;;;;;;;2.30;1.35;;;;;;;5.24;97.74;99298.84;5056280;28;20446;-77
2021/01/12 06:27:25;;;;;;;6.18;2.13;;;;;;;5.19;98.04;99292.09;5054871;28;20052;-77
2021/01/12 06:29:52;;;;;;;1.60;1.20;;;;;;;5.22;98.22;99292.78;5056232;28;20393;-77
2021/01/12 06:32:22;;;;;;;2.05;1.50;;;;;;;5.17;97.92;99284.22;5062214;28;20048;-78
2021/01/12 06:34:51;;;;;;;1.33;0.90;;;;;;;5.30;97.79;99285.28;5064820;28;20051;-78
2021/01/12 06:37:19;;;;;;;3.17;1.25;;;;;;;5.30;98.23;99292.38;5066447;28;20060;-77
2021/01/12 06:39:53;;;;;;;3.25;1.10;;;;;;;5.14;97.82;99234.16;5073766;28;20048;-77
2021/01/12 06:42:25;;;;;;;2.00;1.10;;;;;;;5.37;97.61;99284.97;5074899;28;20056;-77
2021/01/12 06:44:54;;;;;;;5.18;1.17;;;;;;;5.38;97.79;99292.81;5074115;28;20052;-77
2021/01/12 06:47:28;;;;;;;2.47;1.15;;;;;;;5.43;97.50;99300.50;5074804;28;20051;-79
2021/01/12 06:50:16;;;;;;;2.65;1.30;;;;;;;5.34;97.39;99279.84;5075037;28;20124;-78
2021/01/12 06:52:44;;;;;;;4.60;1.60;;;;;;;5.40;97.62;99274.22;5074273;28;20059;-76
2021/01/12 06:55:12;;;;;;;6.80;1.73;;;;;;;5.40;97.83;99264.47;5057367;28;20061;-79
2021/01/12 06:57:42;;;;;;;1.58;1.20;;;;;;;5.46;97.40;99262.44;5056097;28;20060;-78
2021/01/12 07:00:09;;;;;;;2.17;1.27;;;;;;;5.43;97.40;99263.47;5053880;28;20087;-78
2021/01/12 07:02:36;;;;;;;2.55;1.27;;;;;;;5.41;97.63;99268.00;5054890;28;20109;-76
2021/01/12 07:05:05;;;;;;;2.67;1.75;;;;;;;5.44;97.65;99259.88;5055014;28;20060;-77
2021/01/12 07:07:37;;;;;;;2.33;0.95;;;;;;;5.44;97.26;99244.88;5056168;28;20049;-76
2021/01/12 07:10:13;;;;;;;2.53;1.30;;;;;;;5.47;96.96;99250.91;5055905;28;20059;-77
2021/01/12 07:12:40;;;;;;;1.70;1.23;;;;;;;5.38;97.61;99236.38;5056210;28;20165;-78
2021/01/12 07:15:20;;;;;;;3.88;1.42;;;;;;;5.50;97.45;99254.25;5055968;28;20048;-79
2021/01/12 07:17:50;;;;;;;3.50;1.40;;;;;;;5.50;97.13;99243.66;5056455;28;20049;-78
2021/01/12 07:20:22;;;;;;;3.95;1.50;;;;;;;5.53;97.41;99238.22;5059603;28;20075;-80
2021/01/12 07:23:26;;;;;;;2.65;1.50;;;;;;;5.52;97.01;99241.81;5056658;28;20434;-77
2021/01/12 07:25:52;;;;;;;1.95;1.30;;;;;;;5.49;97.41;99244.59;5061255;28;20106;-77
2021/01/12 07:28:22;;;;;;;2.17;1.45;;;;;;;5.54;97.58;99237.28;5055735;28;20049;-77
2021/01/12 07:30:48;;;;;;;3.00;1.50;;;;;;;5.54;97.69;99244.34;5052992;28;20068;-77
2021/01/12 07:33:22;;;;;;;6.38;1.50;;;;;;;5.56;97.65;99247.78;5055381;28;20079;-76
2021/01/12 07:35:56;;;;;;;2.08;1.38;;;;;;;5.53;96.94;99216.19;5052321;28;20052;-76
2021/01/12 07:38:27;;;;;;;5.82;1.55;;;;;;;5.60;97.37;99228.13;5053908;28;20351;-76
2021/01/12 07:40:54;;;;;;;;;;;;;;;5.54;97.81;99229.34;5052089;28;20079;-77
2021/01/12 07:43:23;;;;;;;3.22;1.80;;;;;;;5.55;97.70;99232.81;5053367;28;19931;-76
2021/01/12 07:45:52;;;;;;;2.08;1.73;;;;;;;5.54;97.84;99242.56;5051003;28;20064;-77
2021/01/12 07:48:19;;;;;;;3.42;2.03;;;;;;;5.50;97.84;99226.94;5052272;28;20555;-76
2021/01/12 07:50:48;;;;;;;3.03;1.58;;;;;;;5.58;97.81;99236.16;5053343;28;20048;-76
2021/01/12 07:53:15;;;;;;;2.97;1.55;;;;;;;5.55;97.63;99230.16;5053160;28;20053;-76
2021/01/12 07:55:43;;;;;;;2.28;1.73;;;;;;;5.49;97.58;99226.06;5054917;28;20447;-76
2021/01/12 07:58:11;;;;;;;4.20;1.80;;;;;;;5.60;97.46;99232.59;5052440;28;20053;-76
2021/01/12 08:00:38;;;;;;;3.20;1.75;;;;;;;5.63;97.41;99232.41;5054694;28;20041;-77
2021/01/12 08:03:05;;;;;;;5.10;1.90;;;;;;;5.65;97.33;99233.16;5054859;28;20060;-76
2021/01/12 08:05:32;;;;;;;2.35;1.50;;;;;;;5.66;97.67;99237.53;5051292;28;20431;-77
2021/01/12 08:08:06;;;;;;;5.50;2.10;;;;;;;5.65;97.97;99236.69;5053869;28;20351;-76
2021/01/12 08:10:35;;;;;;;4.28;2.08;;;;;;;5.67;97.42;99228.66;5051751;28;20053;-76
2021/01/12 08:13:06;;;;;;;2.50;1.85;;;;;;;5.69;97.36;99238.22;5054718;28;20392;-77
2021/01/12 08:15:34;;;;;;;3.05;1.65;;;;;;;5.58;97.79;99208.84;5051649;28;20308;-77
2021/01/12 08:18:00;;;;;;;6.45;2.20;;;;;;;5.64;97.90;99226.16;5053822;28;20052;-77
2021/01/12 08:20:26;;;;;;;6.03;1.38;;;;;;;5.69;96.98;99225.00;5054957;28;20095;-77
2021/01/12 08:22:56;;;;;;;3.17;1.50;;;;;;;5.70;97.86;99239.94;5054036;28;20052;-77
2021/01/12 08:25:25;;;;;;;6.32;1.60;;;;;;;5.71;97.55;99222.22;5054657;28;20045;-76
2021/01/12 08:28:00;;;;;;;2.63;2.10;;;;;;;5.75;97.76;99231.72;5052316;28;20053;-77
2021/01/12 08:30:32;;;;;;;3.70;1.80;;;;;;;5.69;97.51;99219.69;5054917;28;20092;-80
2021/01/12 08:33:20;;;;;;;3.60;1.67;;;;;;;5.82;97.63;99238.38;5052720;28;20106;-79
2021/01/12 08:35:52;;;;;;;2.10;1.70;;;;;;;5.50;97.95;99200.47;5054062;28;20060;-81
2021/01/12 08:38:22;;;;;;;2.85;1.90;;;;;;;5.76;98.04;99238.72;5054665;28;20065;-77
2021/01/12 08:40:49;;;;;;;2.53;2.00;;;;;;;5.76;97.75;99243.16;5054519;28;20095;-78
2021/01/12 08:43:20;;;;;;;3.13;2.05;;;;;;;5.81;98.20;99257.88;5054158;28;20052;-79
2021/01/12 08:45:48;;;;;;;;;;;;;;;5.83;98.28;99240.09;5054832;28;20655;-79
2021/01/12 08:48:17;;;;;;;2.03;1.83;;;;;;;5.84;98.66;99247.09;5051495;28;19959;-78
2021/01/12 08:50:44;;;;;;;3.90;2.00;;;;;;;5.88;98.37;99257.53;5054667;28;20126;-84
2021/01/12 08:53:17;;;;;;;3.17;2.08;;;;;;;5.79;98.52;99254.47;5054386;28;20465;-78
2021/01/12 08:55:45;;;;;;;4.22;1.85;;;;;;;5.88;98.67;99274.25;5054744;28;20147;-77
2021/01/12 08:58:12;;;;;;;8.40;2.63;;;;;;;5.84;98.76;99268.28;5054268;28;20144;-80
2021/01/12 09:00:40;;;;;;;2.35;1.98;;;;;;;5.90;98.88;99280.34;5053676;28;20114;-79
2021/01/12 09:03:12;;;;;;;2.60;2.10;;;;;;;5.92;98.81;99280.22;5052593;28;20057;-79
2021/01/12 09:05:40;;;;;;;7.85;2.15;;;;;;;5.89;99.19;99280.41;5056024;28;20056;-78
2021/01/12 09:08:09;;;;;;;4.38;2.30;;;;;;;5.85;99.86;99282.38;5054575;28;20057;-78
2021/01/12 09:10:39;;;;;;;2.58;2.20;;;;;;;5.94;99.44;99296.91;5048495;28;20366;-80
2021/01/12 09:13:07;;;;;;;2.05;1.85;;;;;;;6.00;99.13;99293.91;5053279;28;20470;-78
2021/01/12 09:15:35;;;;;;;3.00;1.80;;;;;;;5.85;99.24;99280.56;5053135;28;20415;-75
2021/01/12 09:18:15;;;;;;;3.28;1.65;;;;;;;5.97;99.41;99294.94;5054030;28;20401;-77
2021/01/12 09:20:41;;;;;;;2.53;1.92;;;;;;;5.96;99.34;99284.44;5057667;28;20350;-78
2021/01/12 09:23:12;;;;;;;2.97;2.00;;;;;;;5.84;99.70;99289.47;5057804;28;20124;-77
2021/01/12 09:25:40;;;;;;;2.45;1.80;;;;;;;6.02;99.81;99315.91;5056224;28;20044;-76
2021/01/12 09:28:13;;;;;;;5.00;2.20;;;;;;;5.98;99.87;99320.50;5057928;28;20049;-77
2021/01/12 09:30:41;;;;;;;4.15;2.33;;;;;;;5.83;100.00;99303.66;5055747;28;20037;-76
2021/01/12 09:33:07;;;;;;;2.63;2.35;;;;;;;5.98;100.00;99330.22;5057814;28;20139;-77
2021/01/12 09:35:34;;;;;;;3.97;2.72;;;;;;;6.01;100.00;99318.59;5057677;28;20421;-76
2021/01/12 09:38:02;;;;;;;5.28;2.90;;;;;;;6.02;100.00;99318.56;5057505;28;20048;-74
2021/01/12 09:40:29;;;;;;;2.20;1.77;;;;;;;6.06;99.95;99328.03;5056447;28;20041;-78
2021/01/12 09:42:57;;;;;;;2.65;1.90;;;;;;;6.14;99.91;99337.38;5057564;28;20056;-77
2021/01/12 09:45:27;;;;;;;3.17;1.92;;;;;;;6.13;100.00;99336.50;5040158;28;20049;-79
2021/01/12 09:47:54;;;;;;;3.47;2.38;;;;;;;6.13;99.30;99341.78;5057469;28;20045;-75
2021/01/12 09:50:20;;;;;;;3.03;1.55;;;;;;;6.19;99.34;99351.19;5057497;28;20102;-76
2021/01/12 09:52:47;;;;;;;4.07;1.58;;;;;;;6.17;99.32;99353.06;5057590;28;20045;-76
2021/01/12 09:55:13;;;;;;;3.00;1.58;;;;;;;6.13;99.39;99346.22;5054134;28;20049;-77
2021/01/12 09:57:39;;;;;;;3.10;2.03;;;;;;;6.18;99.54;99357.44;5057521;28;20342;-77
2021/01/12 10:00:09;;;;;;;2.65;1.80;;;;;;;6.20;99.37;99369.66;5054595;28;20056;-74
2021/01/12 10:02:36;;;;;;;1.83;1.50;;;;;;;6.19;99.28;99369.72;5056338;28;20048;-76
2021/01/12 10:05:02;;;;;;;3.13;1.90;;;;;;;6.21;98.77;99381.13;5056833;28;20061;-78
2021/01/12 10:07:29;;;;;;;2.88;1.85;;;;;;;6.12;99.10;99369.22;5056976;28;20048;-77
2021/01/12 10:09:55;;;;;;;4.90;2.08;;;;;;;6.17;99.12;99391.03;5056823;28;20045;-75
2021/01/12 10:12:21;;;;;;;5.07;3.05;;;;;;;6.17;98.62;99398.13;5056861;28;20350;-77
2021/01/12 10:14:47;;;;;;;5.05;1.80;;;;;;;6.15;98.11;99398.19;5055821;28;20118;-77
2021/01/12 10:17:13;;;;;;;3.60;2.30;;;;;;;6.11;98.69;99386.91;5056904;28;20041;-75
2021/01/12 10:19:39;;;;;;;3.22;1.60;;;;;;;6.20;98.62;99396.16;5056634;28;20045;-75
2021/01/12 10:22:06;;;;;;;5.35;2.00;;;;;;;6.19;98.81;99398.88;5056717;28;20060;-76
2021/01/12 10:24:32;;;;;;;5.43;2.42;;;;;;;6.09;98.89;99387.94;5055449;28;20409;-78
2021/01/12 10:26:59;;;;;;;4.93;2.60;;;;;;;6.18;99.35;99402.47;5053050;28;20055;-75
2021/01/12 10:29:26;;;;;;;3.78;2.63;;;;;;;6.09;98.52;99396.75;5055533;28;20049;-77
2021/01/12 10:31:52;;;;;;;4.25;2.88;;;;;;;6.23;99.02;99416.34;5055958;28;20427;-74
2021/01/12 10:34:20;;;;;;;5.90;3.17;;;;;;;6.06;98.44;99388.94;5052782;28;20048;-75
2021/01/12 10:36:51;;;;;;;6.07;2.65;;;;;;;6.11;98.77;99394.84;5056347;28;20057;-77
2021/01/12 10:39:17;;;;;;;5.13;3.05;;;;;;;6.24;98.90;99418.91;5056146;28;20041;-75
2021/01/12 10:41:44;;;;;;;6.97;3.47;;;;;;;6.26;98.55;99421.44;5056384;28;20049;-76
2021/01/12 10:44:10;;;;;;;4.68;3.20;;;;;;;6.26;98.33;99421.44;5056550;28;20350;-75
2021/01/12 10:46:36;;;;;;;7.50;3.80;;;;;;;6.24;98.42;99418.03;5056118;28;20053;-77
2021/01/12 10:49:04;;;;;;;6.22;3.60;;;;;;;6.23;98.19;99416.34;5038324;28;20351;-78
2021/01/12 10:51:30;;;;;;;6.18;3.67;;;;;;;6.24;97.58;99426.00;5056563;28;20053;-77
2021/01/12 10:53:56;;;;;;;6.28;3.72;;;;;;;6.25;97.89;99433.00;5057318;28;20423;-76
2021/01/12 10:56:22;;;;;;;12.70;3.50;;;;;;;6.31;96.52;99429.16;5055415;28;20045;-77
2021/01/12 10:58:51;;;;;;;8.85;3.88;;;;;;;6.24;96.86;99431.28;5056626;28;20150;-77
2021/01/12 11:01:17;;;;;;;8.23;3.75;;;;;;;6.20;96.06;99433.25;5056950;28;20045;-75
2021/01/12 11:03:45;;;;;;;11.55;4.53;;;;;;;6.17;96.90;99437.88;5058034;28;20041;-77
2021/01/12 11:06:11;;;;;;;10.18;4.70;;;;;;;6.13;97.54;99446.91;5057783;28;20385;-78
2021/01/12 11:08:38;;;;;;;6.18;3.75;;;;;;;5.96;96.56;99411.56;5059747;28;20045;-76
2021/01/12 11:11:04;;;;;;;7.90;4.57;;;;;;;6.16;96.91;99452.06;5060388;28;20052;-78
2021/01/12 11:13:31;;;;;;;7.60;4.60;;;;;;;6.16;96.94;99446.75;5056037;28;20053;-76
2021/01/12 11:15:57;;;;;;;6.40;4.20;;;;;;;6.07;97.34;99434.84;5057639;28;20044;-77
2021/01/12 11:18:25;;;;;;;4.97;3.50;;;;;;;6.11;96.39;99449.66;5055643;28;20049;-75
2021/01/12 11:20:52;;;;;;;5.43;3.47;;;;;;;6.09;96.13;99455.03;5065748;28;20051;-75
2021/01/12 11:23:18;;;;;;;9.55;3.67;;;;;;;5.98;97.09;99444.13;5063490;28;20044;-79
2021/01/12 11:25:45;;;;;;;10.55;4.35;;;;;;;6.01;97.32;99459.88;5062024;28;20056;-77
2021/01/12 11:28:11;;;;;;;6.45;4.40;;;;;;;5.97;98.75;99459.16;5060693;28;20338;-75
2021/01/12 11:30:37;;;;;;;6.82;5.13;;;;;;;5.94;98.93;99459.31;5061142;28;20091;-76
2021/01/12 11:33:07;;;;;;;8.10;5.38;;;;;;;5.88;99.44;99453.50;5062333;28;20057;-78
2021/01/12 11:35:33;;;;;;;10.90;6.95;;;;;;;5.93;99.86;99456.75;5063868;28;20109;-77
2021/01/12 11:38:00;;;;;;;12.38;6.20;;;;;;;5.94;99.62;99463.78;5057262;28;20057;-78
2021/01/12 11:40:26;;;;;;;13.18;6.10;;;;;;;5.95;100.00;99468.13;5058645;28;20048;-77
2021/01/12 11:42:52;;;;;;;7.38;5.13;;;;;;;5.88;99.07;99464.94;5057772;28;20071;-78
2021/01/12 11:45:19;;;;;;;7.25;4.85;;;;;;;5.86;98.87;99472.13;5057254;28;20060;-77
2021/01/12 11:47:45;;;;;;;8.85;5.93;;;;;;;5.80;99.60;99478.59;5055128;28;20091;-76